SAME/MDZ METAR and TAF weather

Enter ICAO airport designator
Station Type Date Time Source
SAME METAR 2021/03/06 04:00 UTC NOAA

SAME 060400Z 23003KT CAVOK 24/17 Q1011


Station Type Date Time Source
SAME Decoded METAR 2021/03/06 04:00 UTC NOAA

Mendoza Aerodrome, Argentina (SAME) 32-50S 068-47W 704M
Mar 05, 2021 - 11:00 PM EST / 2021.03.06 0400 UTC
Wind: from the SW (230 degrees) at 3 MPH (3 KT):0
Visibility: greater than 7 mile(s):0
Temperature: 75 F (24 C)
Dew Point: 62 F (17 C)
Relative Humidity: 64%
Pressure (altimeter): 29.85 in. Hg (1011 hPa)
ob: SAME 060400Z 23003KT CAVOK 24/17 Q1011
cycle: 4

Station Type Date Time Source
SAME TAF 2021/03/06 00:00 UTC NOAA

TAF SAME 052300Z 0600/0624 05010KT 9999 FEW040 FEW0TCU TX35/0620Z TN22/0610Z
BECMG 0610/0612 36005KT CAVOK

Example: see airport list